Time;durP1;ratioP1;P1;durP2;ratioP2;P2;SDS_P1;SDS_P2;PMS_P1;PMS_P2;Temp;Humidity;BMP_temperature;BMP_pressure;BME280_temperature;BME280_humidity;BME280_pressure;Samples;Min_cycle;Max_cycle;Signal;HPM_P1;HPM_P2
2022/10/19 00:01:03;;;;;;;12.27;3.13;;;;;;;;;;5011342;28;20033;-75
2022/10/19 00:03:29;;;;;;;9.48;3.00;;;;;;;;;;5008047;28;20022;-75
2022/10/19 00:05:55;;;;;;;9.95;3.05;;;;;;;;;;4979738;28;20034;-74
2022/10/19 00:08:21;;;;;;;10.95;3.05;;;;;;;;;;4993840;28;20041;-75
2022/10/19 00:10:47;;;;;;;5.05;2.55;;;;;;;;;;4994000;28;20026;-74
2022/10/19 00:13:13;;;;;;;6.45;2.80;;;;;;;;;;5011451;28;20034;-74
2022/10/19 00:15:40;;;;;;;7.03;2.55;;;;;;;;;;5011417;28;20060;-74
2022/10/19 00:18:06;;;;;;;9.85;3.00;;;;;;;;;;5011142;28;20423;-75
2022/10/19 00:20:32;;;;;;;6.50;2.47;;;;;;;;;;5011380;28;20085;-75
2022/10/19 00:22:58;;;;;;;12.65;3.17;;;;;;;;;;5011182;28;20029;-75
2022/10/19 00:25:24;;;;;;;14.00;3.35;;;;;;;;;;5011602;28;20109;-75
2022/10/19 00:27:50;;;;;;;7.30;2.80;;;;;;;;;;5011106;28;20025;-74
2022/10/19 00:30:16;;;;;;;13.68;2.72;;;;;;;;;;5011134;28;20026;-75
2022/10/19 00:32:43;;;;;;;10.52;2.95;;;;;;;;;;5011524;28;20441;-75
2022/10/19 00:35:09;;;;;;;5.68;2.50;;;;;;;;;;5011289;28;20113;-74
2022/10/19 00:37:35;;;;;;;8.32;2.42;;;;;;;;;;5014585;28;20440;-75
2022/10/19 00:40:01;;;;;;;9.85;2.85;;;;;;;;;;5015214;28;20030;-75
2022/10/19 00:42:27;;;;;;;11.40;3.25;;;;;;;;;;5015041;28;20080;-74
2022/10/19 00:44:58;;;;;;;12.55;3.05;;;;;;;;;;4997299;28;20060;-74
2022/10/19 00:47:24;;;;;;;7.43;2.53;;;;;;;;;;5014946;28;20321;-74
2022/10/19 00:49:50;;;;;;;10.10;2.50;;;;;;;;;;4997578;28;20034;-75
2022/10/19 00:52:19;;;;;;;14.45;2.80;;;;;;;;;;5014730;28;20507;-74
2022/10/19 00:54:45;;;;;;;12.05;2.60;;;;;;;;;;5015166;28;20423;-74
2022/10/19 00:57:12;;;;;;;9.07;2.40;;;;;;;;;;5014835;28;20030;-74
2022/10/19 00:59:39;;;;;;;5.50;2.33;;;;;;;;;;5014947;28;20378;-74
2022/10/19 01:02:05;;;;;;;9.13;2.72;;;;;;;;;;5014329;28;20058;-74
2022/10/19 01:04:33;;;;;;;5.22;2.50;;;;;;;;;;5003569;28;20029;-74
2022/10/19 01:06:59;;;;;;;6.50;2.63;;;;;;;;;;5004634;28;20034;-74
2022/10/19 01:09:25;;;;;;;5.57;2.78;;;;;;;;;;4995118;28;20027;-74
2022/10/19 01:11:57;;;;;;;6.68;2.53;;;;;;;;;;5011316;28;20357;-74
2022/10/19 01:14:30;;;;;;;7.93;2.20;;;;;;;;;;5014433;28;20066;-74
2022/10/19 01:17:00;;;;;;;11.05;2.38;;;;;;;;;;5014479;28;20117;-75
2022/10/19 01:19:32;;;;;;;7.00;2.53;;;;;;;;;;5013078;28;20045;-74
2022/10/19 01:22:17;;;;;;;9.40;2.55;;;;;;;;;;5014471;28;20026;-74
2022/10/19 01:24:50;;;;;;;3.42;2.13;;;;;;;;;;4994648;28;20042;-74
2022/10/19 01:27:35;;;;;;;5.95;2.20;;;;;;;;;;4977100;28;20476;-74
2022/10/19 01:30:07;;;;;;;5.68;1.77;;;;;;;;;;4994875;28;20034;-75
2022/10/19 01:32:33;;;;;;;8.57;3.25;;;;;;;;;;4994203;28;20066;-74
2022/10/19 01:35:02;;;;;;;9.10;2.13;;;;;;;;;;4994750;28;20033;-75
2022/10/19 01:37:34;;;;;;;11.43;2.42;;;;;;;;;;4994400;28;20042;-75
2022/10/19 01:40:07;;;;;;;10.27;2.58;;;;;;;;;;5034047;28;20036;-74
2022/10/19 01:42:44;;;;;;;10.77;2.15;;;;;;;;;;5019520;28;20069;-74
2022/10/19 01:45:14;;;;;;;5.15;2.45;;;;;;;;;;4995330;28;20058;-74
2022/10/19 01:47:43;;;;;;;6.35;2.20;;;;;;;;;;5012364;28;20034;-74
2022/10/19 01:50:11;;;;;;;9.68;2.20;;;;;;;;;;5012722;28;20033;-74
2022/10/19 01:52:40;;;;;;;13.00;2.72;;;;;;;;;;5012747;28;20380;-75
2022/10/19 01:55:08;;;;;;;7.95;2.15;;;;;;;;;;5012843;28;20032;-74
2022/10/19 01:57:36;;;;;;;11.93;2.40;;;;;;;;;;5012837;28;20038;-74
2022/10/19 02:00:06;;;;;;;11.73;2.10;;;;;;;;;;5012651;28;20440;-74
2022/10/19 02:02:34;;;;;;;12.15;1.90;;;;;;;;;;4993610;28;20034;-74
2022/10/19 02:05:01;;;;;;;7.78;2.08;;;;;;;;;;5001180;28;20035;-74
2022/10/19 02:07:27;;;;;;;5.30;2.22;;;;;;;;;;5006532;28;20030;-75
2022/10/19 02:09:53;;;;;;;7.35;2.25;;;;;;;;;;5011893;28;20062;-75
2022/10/19 02:12:20;;;;;;;7.65;2.03;;;;;;;;;;4992965;28;20469;-75
2022/10/19 02:14:48;;;;;;;7.88;2.20;;;;;;;;;;4992888;28;20085;-74
2022/10/19 02:17:17;;;;;;;8.68;1.67;;;;;;;;;;5012110;28;20384;-74
2022/10/19 02:19:43;;;;;;;9.85;1.70;;;;;;;;;;5012305;28;20033;-74
2022/10/19 02:22:10;;;;;;;11.43;1.70;;;;;;;;;;5012187;28;20072;-74
2022/10/19 02:24:36;;;;;;;9.77;1.83;;;;;;;;;;5012396;28;20026;-74
2022/10/19 02:27:04;;;;;;;3.50;1.63;;;;;;;;;;5012140;28;20026;-74
2022/10/19 02:29:31;;;;;;;4.35;1.55;;;;;;;;;;4994191;28;20394;-75
2022/10/19 02:31:57;;;;;;;10.35;2.38;;;;;;;;;;5012406;28;20578;-74
2022/10/19 02:34:23;;;;;;;11.30;1.80;;;;;;;;;;5012178;28;20029;-75
2022/10/19 02:36:49;;;;;;;4.10;1.70;;;;;;;;;;5011977;28;20431;-74
2022/10/19 02:39:15;;;;;;;5.20;1.80;;;;;;;;;;4997343;28;20015;-74
2022/10/19 02:41:55;;;;;;;8.57;1.85;;;;;;;;;;4962796;28;592189;-74
2022/10/19 02:44:31;;;;;;;5.80;1.70;;;;;;;;;;4986974;28;20034;-75
2022/10/19 02:47:09;;;;;;;5.03;1.77;;;;;;;;;;4991587;28;20036;-74
2022/10/19 02:49:36;;;;;;;10.05;2.00;;;;;;;;;;4993379;28;20026;-74
2022/10/19 02:52:06;;;;;;;11.13;1.85;;;;;;;;;;4994754;28;20103;-74
2022/10/19 02:54:33;;;;;;;3.88;1.65;;;;;;;;;;5012457;28;20129;-74
2022/10/19 02:56:59;;;;;;;7.90;2.08;;;;;;;;;;5012843;28;20034;-74
2022/10/19 02:59:25;;;;;;;10.02;1.50;;;;;;;;;;5011694;28;20029;-75
2022/10/19 03:01:51;;;;;;;3.65;1.77;;;;;;;;;;5012844;28;20520;-75
2022/10/19 03:04:17;;;;;;;6.55;1.98;;;;;;;;;;4992761;28;20141;-74
2022/10/19 03:06:44;;;;;;;6.72;1.83;;;;;;;;;;5001414;28;20075;-74
2022/10/19 03:09:10;;;;;;;9.30;1.90;;;;;;;;;;5012431;28;20049;-75
2022/10/19 03:11:36;;;;;;;6.22;1.60;;;;;;;;;;4997430;28;20045;-74
2022/10/19 03:14:02;;;;;;;6.50;1.83;;;;;;;;;;4992933;28;20543;-74
2022/10/19 03:16:28;;;;;;;6.93;2.35;;;;;;;;;;5002053;28;20793;-75
2022/10/19 03:18:54;;;;;;;7.70;2.28;;;;;;;;;;5012190;28;20030;-74
2022/10/19 03:21:20;;;;;;;8.25;1.95;;;;;;;;;;5012034;28;20038;-74
2022/10/19 03:23:46;;;;;;;4.88;1.77;;;;;;;;;;5012304;28;20036;-74
2022/10/19 03:26:14;;;;;;;7.57;1.50;;;;;;;;;;5012233;28;20032;-74
2022/10/19 03:28:40;;;;;;;9.50;1.70;;;;;;;;;;5012411;28;20360;-74
2022/10/19 03:31:06;;;;;;;5.50;2.05;;;;;;;;;;5012288;28;20040;-74
2022/10/19 03:33:32;;;;;;;6.25;1.92;;;;;;;;;;5012013;28;20061;-75
2022/10/19 03:36:16;;;;;;;2.25;1.50;;;;;;;;;;5012189;28;20038;-74
2022/10/19 03:38:43;;;;;;;6.45;2.53;;;;;;;;;;4993972;28;20029;-74
2022/10/19 03:41:09;;;;;;;5.18;1.95;;;;;;;;;;5011875;28;20132;-74
2022/10/19 03:43:35;;;;;;;5.07;1.73;;;;;;;;;;5011726;28;20101;-74
2022/10/19 03:46:01;;;;;;;4.97;1.88;;;;;;;;;;4994232;28;20361;-74
2022/10/19 03:48:27;;;;;;;8.23;2.03;;;;;;;;;;5011782;28;20511;-74
2022/10/19 03:51:00;;;;;;;12.15;1.77;;;;;;;;;;5011439;28;20022;-74
2022/10/19 03:53:26;;;;;;;4.18;1.63;;;;;;;;;;4993817;28;20021;-74
2022/10/19 03:55:52;;;;;;;6.95;1.80;;;;;;;;;;4993699;28;20029;-74
2022/10/19 03:58:18;;;;;;;5.05;1.73;;;;;;;;;;5011678;28;20029;-74
2022/10/19 04:00:44;;;;;;;14.45;2.10;;;;;;;;;;4993799;28;20033;-74
2022/10/19 04:03:10;;;;;;;6.57;2.10;;;;;;;;;;5006714;28;20031;-74
2022/10/19 04:05:36;;;;;;;4.32;1.80;;;;;;;;;;4978925;28;20042;-74
2022/10/19 04:08:02;;;;;;;6.13;2.13;;;;;;;;;;5010841;28;20122;-74
2022/10/19 04:10:30;;;;;;;5.15;1.88;;;;;;;;;;5005139;28;20089;-74
2022/10/19 04:12:56;;;;;;;9.77;1.80;;;;;;;;;;4991949;28;20037;-74
2022/10/19 04:15:22;;;;;;;3.72;1.80;;;;;;;;;;4991943;28;20030;-75
2022/10/19 04:17:48;;;;;;;5.40;1.92;;;;;;;;;;5007849;28;20431;-74
2022/10/19 04:20:14;;;;;;;7.35;1.80;;;;;;;;;;5011563;28;20057;-75
2022/10/19 04:22:40;;;;;;;6.65;1.63;;;;;;;;;;5010854;28;20022;-75
2022/10/19 04:25:07;;;;;;;4.95;1.65;;;;;;;;;;5011367;28;20030;-75
2022/10/19 04:27:33;;;;;;;6.72;2.30;;;;;;;;;;5011211;28;20030;-74
2022/10/19 04:29:59;;;;;;;8.00;2.30;;;;;;;;;;5011204;28;20381;-75
2022/10/19 04:32:25;;;;;;;6.63;1.92;;;;;;;;;;5009684;28;20053;-74
2022/10/19 04:34:51;;;;;;;6.32;2.22;;;;;;;;;;5009930;28;20033;-74
2022/10/19 04:37:17;;;;;;;4.85;2.38;;;;;;;;;;5011135;28;20026;-75
2022/10/19 04:39:43;;;;;;;3.70;1.52;;;;;;;;;;5010828;28;20038;-74
2022/10/19 04:42:09;;;;;;;7.22;1.98;;;;;;;;;;4993457;28;20136;-75
2022/10/19 04:44:35;;;;;;;4.90;1.95;;;;;;;;;;5011019;28;20030;-75
2022/10/19 04:47:01;;;;;;;6.10;1.85;;;;;;;;;;5010976;28;20138;-74
2022/10/19 04:49:27;;;;;;;8.15;2.40;;;;;;;;;;5010895;28;20026;-74
2022/10/19 04:51:53;;;;;;;4.25;1.85;;;;;;;;;;5010761;28;20030;-75
2022/10/19 04:54:19;;;;;;;6.53;2.20;;;;;;;;;;5010944;28;20045;-74
2022/10/19 04:56:45;;;;;;;5.00;1.80;;;;;;;;;;5010739;28;20508;-75
2022/10/19 04:59:11;;;;;;;8.98;1.92;;;;;;;;;;5010896;28;20445;-75
2022/10/19 05:01:38;;;;;;;5.10;1.80;;;;;;;;;;4993007;28;20369;-74
2022/10/19 05:04:04;;;;;;;5.90;1.73;;;;;;;;;;5006445;28;20461;-74
2022/10/19 05:06:31;;;;;;;10.07;2.03;;;;;;;;;;4993116;28;20029;-74
2022/10/19 05:08:57;;;;;;;7.82;2.00;;;;;;;;;;4991280;28;20473;-74
2022/10/19 05:11:23;;;;;;;6.25;2.00;;;;;;;;;;4990989;28;20030;-74
2022/10/19 05:13:50;;;;;;;4.18;1.73;;;;;;;;;;4991334;28;20018;-74
2022/10/19 05:16:17;;;;;;;3.10;1.48;;;;;;;;;;4991390;28;20042;-74
2022/10/19 05:18:46;;;;;;;8.25;1.85;;;;;;;;;;5010485;28;20030;-74
2022/10/19 05:21:13;;;;;;;8.10;1.70;;;;;;;;;;5010894;28;20022;-74
2022/10/19 05:23:40;;;;;;;7.50;1.80;;;;;;;;;;5014037;28;20499;-75
2022/10/19 05:26:07;;;;;;;5.05;1.77;;;;;;;;;;5014426;28;20022;-74
2022/10/19 05:28:34;;;;;;;4.65;1.98;;;;;;;;;;5014057;28;20114;-74
2022/10/19 05:31:07;;;;;;;9.07;1.73;;;;;;;;;;5014147;28;20030;-74
2022/10/19 05:33:33;;;;;;;4.05;1.52;;;;;;;;;;5014236;28;20039;-74
2022/10/19 05:35:59;;;;;;;4.57;1.95;;;;;;;;;;5013891;28;20090;-74
2022/10/19 05:38:25;;;;;;;4.30;1.70;;;;;;;;;;5014078;28;20496;-74
2022/10/19 05:40:51;;;;;;;5.22;1.90;;;;;;;;;;5013722;28;20030;-75
2022/10/19 05:43:17;;;;;;;6.28;1.90;;;;;;;;;;5013936;28;20088;-74
2022/10/19 05:45:43;;;;;;;3.75;1.73;;;;;;;;;;4996682;28;20142;-74
2022/10/19 05:48:09;;;;;;;5.57;1.75;;;;;;;;;;5014002;28;20026;-75
2022/10/19 05:50:35;;;;;;;6.30;2.50;;;;;;;;;;4996325;28;20034;-74
2022/10/19 05:53:01;;;;;;;4.35;2.40;;;;;;;;;;5013969;28;20026;-74
2022/10/19 05:55:27;;;;;;;9.68;2.50;;;;;;;;;;5013342;28;20033;-75
2022/10/19 05:57:54;;;;;;;5.53;2.60;;;;;;;;;;4979905;28;20045;-75
2022/10/19 06:00:20;;;;;;;6.78;2.40;;;;;;;;;;4996011;28;20030;-75
2022/10/19 06:02:46;;;;;;;5.85;2.40;;;;;;;;;;4994142;28;20080;-74
2022/10/19 06:05:12;;;;;;;7.75;2.45;;;;;;;;;;4999858;28;20031;-74
2022/10/19 06:07:38;;;;;;;3.38;2.10;;;;;;;;;;5009609;28;20029;-74
2022/10/19 06:10:04;;;;;;;9.07;2.45;;;;;;;;;;5010664;28;20053;-74
2022/10/19 06:12:30;;;;;;;5.55;2.40;;;;;;;;;;4993906;28;20026;-74
2022/10/19 06:14:56;;;;;;;8.70;2.45;;;;;;;;;;5000729;28;20034;-74
2022/10/19 06:17:22;;;;;;;8.80;2.60;;;;;;;;;;5001503;28;20025;-74
2022/10/19 06:19:48;;;;;;;6.63;2.85;;;;;;;;;;5003051;28;20039;-74
2022/10/19 06:22:14;;;;;;;8.73;3.28;;;;;;;;;;5002099;28;20027;-74
2022/10/19 06:24:40;;;;;;;9.80;3.38;;;;;;;;;;5001950;28;20114;-74
2022/10/19 06:27:06;;;;;;;9.88;3.17;;;;;;;;;;5004685;28;20442;-75
2022/10/19 06:29:32;;;;;;;11.70;3.33;;;;;;;;;;5004747;28;20022;-75
2022/10/19 06:31:59;;;;;;;7.18;2.75;;;;;;;;;;5010025;28;20053;-74
2022/10/19 06:34:25;;;;;;;11.65;3.60;;;;;;;;;;4993974;28;20452;-75
2022/10/19 06:36:51;;;;;;;10.80;4.25;;;;;;;;;;5012762;28;20132;-75
2022/10/19 06:39:17;;;;;;;6.80;3.35;;;;;;;;;;4998235;28;20027;-75
2022/10/19 06:41:43;;;;;;;13.82;3.70;;;;;;;;;;5010346;28;20140;-74
2022/10/19 06:44:09;;;;;;;12.82;3.53;;;;;;;;;;5011739;28;20057;-75
2022/10/19 06:46:35;;;;;;;11.23;3.60;;;;;;;;;;5012844;28;20025;-75
2022/10/19 06:49:01;;;;;;;9.10;4.20;;;;;;;;;;5013052;28;20061;-75
2022/10/19 06:51:28;;;;;;;12.85;4.18;;;;;;;;;;5012813;28;20112;-75
2022/10/19 06:53:55;;;;;;;12.65;4.78;;;;;;;;;;5003596;28;20030;-75
2022/10/19 06:56:23;;;;;;;12.25;4.32;;;;;;;;;;5003801;28;20038;-75
2022/10/19 06:58:49;;;;;;;15.65;5.05;;;;;;;;;;5003075;28;20726;-75
2022/10/19 07:01:15;;;;;;;15.00;5.07;;;;;;;;;;5002301;28;20557;-75
2022/10/19 07:03:42;;;;;;;11.52;5.18;;;;;;;;;;4981176;28;20880;-75
2022/10/19 07:06:09;;;;;;;14.77;4.60;;;;;;;;;;4999228;28;20049;-74
2022/10/19 07:08:36;;;;;;;16.17;5.78;;;;;;;;;;5009450;28;20017;-74
2022/10/19 07:11:05;;;;;;;15.15;5.32;;;;;;;;;;5009521;28;20440;-74
2022/10/19 07:13:31;;;;;;;21.08;5.82;;;;;;;;;;5006577;28;20121;-75
2022/10/19 07:16:10;;;;;;;21.42;4.95;;;;;;;;;;4989121;28;20061;-75
2022/10/19 07:18:36;;;;;;;15.15;4.90;;;;;;;;;;5008987;28;20476;-75
2022/10/19 07:21:03;;;;;;;14.65;4.90;;;;;;;;;;5006740;28;20423;-75
2022/10/19 07:23:30;;;;;;;12.82;5.45;;;;;;;;;;5006637;28;20448;-75
2022/10/19 07:26:00;;;;;;;20.50;6.35;;;;;;;;;;5006851;28;20318;-74
2022/10/19 07:28:28;;;;;;;28.30;9.80;;;;;;;;;;4985391;28;20073;-75
2022/10/19 07:30:54;;;;;;;23.05;11.45;;;;;;;;;;5009050;28;20054;-74
2022/10/19 07:33:20;;;;;;;26.25;12.88;;;;;;;;;;4997685;28;20035;-75
2022/10/19 07:35:46;;;;;;;25.27;13.13;;;;;;;;;;5009952;28;20056;-75
2022/10/19 07:38:12;;;;;;;30.25;14.05;;;;;;;;;;5003676;28;20492;-75
2022/10/19 07:40:38;;;;;;;30.23;14.27;;;;;;;;;;5006458;28;20472;-74
2022/10/19 07:43:04;;;;;;;30.35;13.73;;;;;;;;;;5003638;28;20103;-75
2022/10/19 07:45:32;;;;;;;24.20;11.90;;;;;;;;;;5005833;28;20101;-75
2022/10/19 07:47:58;;;;;;;27.60;10.93;;;;;;;;;;5010289;28;20029;-75
2022/10/19 07:50:26;;;;;;;20.80;9.48;;;;;;;;;;5005094;28;20117;-75
2022/10/19 07:52:52;;;;;;;21.33;8.45;;;;;;;;;;5007453;28;20054;-74
2022/10/19 07:55:18;;;;;;;19.73;7.72;;;;;;;;;;5002776;28;20195;-75
2022/10/19 07:57:48;;;;;;;15.63;7.00;;;;;;;;;;4984107;28;20058;-75
2022/10/19 08:00:15;;;;;;;16.73;6.82;;;;;;;;;;4981052;28;20132;-74
2022/10/19 08:02:41;;;;;;;20.17;6.20;;;;;;;;;;4988584;28;20036;-74
2022/10/19 08:05:07;;;;;;;13.20;6.18;;;;;;;;;;5009038;28;20124;-74
2022/10/19 08:07:33;;;;;;;22.38;7.32;;;;;;;;;;5003723;28;20447;-74
2022/10/19 08:09:59;;;;;;;18.40;5.50;;;;;;;;;;5001232;28;20030;-75
2022/10/19 08:12:26;;;;;;;12.68;5.50;;;;;;;;;;5011242;28;20022;-75
2022/10/19 08:14:52;;;;;;;15.70;5.38;;;;;;;;;;5011298;28;20033;-75
2022/10/19 08:17:18;;;;;;;13.82;5.55;;;;;;;;;;5008720;28;20073;-75
2022/10/19 08:19:45;;;;;;;12.48;5.10;;;;;;;;;;5011334;28;20045;-75
2022/10/19 08:22:11;;;;;;;13.60;5.88;;;;;;;;;;5010346;28;20018;-74
2022/10/19 08:24:38;;;;;;;13.10;5.40;;;;;;;;;;5011198;28;20026;-75
2022/10/19 08:27:04;;;;;;;10.77;5.47;;;;;;;;;;5011428;28;20095;-75
2022/10/19 08:29:30;;;;;;;10.80;5.45;;;;;;;;;;5011081;28;20037;-75
2022/10/19 08:31:56;;;;;;;17.38;5.88;;;;;;;;;;5011794;28;20038;-75
2022/10/19 08:34:22;;;;;;;13.63;5.65;;;;;;;;;;5012187;28;20026;-75
2022/10/19 08:36:48;;;;;;;15.73;5.18;;;;;;;;;;5011891;28;20505;-75
2022/10/19 08:39:16;;;;;;;12.27;5.40;;;;;;;;;;4997046;28;20042;-75
2022/10/19 08:41:45;;;;;;;12.60;5.25;;;;;;;;;;4991180;28;20046;-75
2022/10/19 08:44:21;;;;;;;16.27;5.60;;;;;;;;;;4991274;28;20523;-75
2022/10/19 08:46:53;;;;;;;15.65;5.50;;;;;;;;;;5001535;28;20060;-74
2022/10/19 08:49:20;;;;;;;14.68;5.63;;;;;;;;;;5000874;28;20094;-74
2022/10/19 08:51:49;;;;;;;15.30;4.82;;;;;;;;;;5000044;28;20069;-74
2022/10/19 08:54:16;;;;;;;12.20;4.07;;;;;;;;;;4996000;28;20029;-74
2022/10/19 08:56:48;;;;;;;11.70;4.50;;;;;;;;;;4991638;28;20054;-74
2022/10/19 08:59:33;;;;;;;9.48;4.18;;;;;;;;;;5005220;28;20030;-74
2022/10/19 09:02:08;;;;;;;22.15;5.60;;;;;;;;;;5013184;28;20034;-73
2022/10/19 09:04:36;;;;;;;10.10;4.25;;;;;;;;;;5000625;28;20037;-73
2022/10/19 09:07:21;;;;;;;7.10;3.45;;;;;;;;;;5000344;28;20049;-74
2022/10/19 09:09:52;;;;;;;7.60;3.30;;;;;;;;;;4994978;28;20033;-74
2022/10/19 09:12:22;;;;;;;13.38;3.90;;;;;;;;;;4995025;28;20118;-74
2022/10/19 09:14:48;;;;;;;8.38;3.08;;;;;;;;;;4994965;28;20058;-74
2022/10/19 09:17:16;;;;;;;7.32;3.05;;;;;;;;;;4994854;28;20495;-74
2022/10/19 09:19:42;;;;;;;11.88;3.45;;;;;;;;;;4993101;28;20385;-73
2022/10/19 09:22:12;;;;;;;7.22;3.00;;;;;;;;;;4997318;28;20027;-73
2022/10/19 09:24:57;;;;;;;11.70;3.20;;;;;;;;;;5014531;28;20025;-73
2022/10/19 09:27:28;;;;;;;8.30;2.28;;;;;;;;;;5014322;28;20022;-73
2022/10/19 09:29:55;;;;;;;8.85;1.90;;;;;;;;;;5014418;28;20033;-74
2022/10/19 09:32:26;;;;;;;8.98;2.20;;;;;;;;;;5014377;28;20029;-73
2022/10/19 09:34:54;;;;;;;14.02;2.60;;;;;;;;;;5014590;28;20072;-73
2022/10/19 09:37:21;;;;;;;7.50;1.80;;;;;;;;;;4995964;28;20079;-73
2022/10/19 09:39:47;;;;;;;9.32;1.60;;;;;;;;;;4995304;28;20046;-73
2022/10/19 09:42:35;;;;;;;12.45;2.03;;;;;;;;;;5004046;28;20699;-73
2022/10/19 09:45:11;;;;;;;3.92;1.10;;;;;;;;;;5013928;28;20453;-73
2022/10/19 09:47:42;;;;;;;4.78;1.10;;;;;;;;;;5013890;28;20038;-73
2022/10/19 09:50:29;;;;;;;5.68;1.00;;;;;;;;;;5014039;28;20104;-73
2022/10/19 09:52:56;;;;;;;5.15;0.90;;;;;;;;;;5013763;28;20095;-73
2022/10/19 09:55:37;;;;;;;6.40;0.90;;;;;;;;;;4996031;28;20048;-73
2022/10/19 09:58:12;;;;;;;2.95;1.08;;;;;;;;;;4995677;28;20041;-73
2022/10/19 10:00:41;;;;;;;5.53;1.25;;;;;;;;;;5008497;28;20045;-73
2022/10/19 10:03:08;;;;;;;4.55;0.80;;;;;;;;;;5009600;28;20359;-73
2022/10/19 10:05:36;;;;;;;10.18;0.98;;;;;;;;;;5008652;28;20041;-73
2022/10/19 10:08:03;;;;;;;7.35;0.93;;;;;;;;;;5010805;28;20022;-73
2022/10/19 10:10:35;;;;;;;3.60;0.88;;;;;;;;;;5010839;28;20117;-73
2022/10/19 10:13:01;;;;;;;4.90;0.90;;;;;;;;;;5011413;28;20337;-73
2022/10/19 10:15:28;;;;;;;7.95;1.55;;;;;;;;;;5013206;28;20025;-74
2022/10/19 10:17:55;;;;;;;6.13;0.73;;;;;;;;;;5013415;28;20033;-74
2022/10/19 10:20:29;;;;;;;7.50;0.82;;;;;;;;;;4995479;28;20474;-73
2022/10/19 10:23:00;;;;;;;4.63;0.80;;;;;;;;;;5003958;28;20015;-73
2022/10/19 10:25:28;;;;;;;7.07;0.80;;;;;;;;;;5006298;28;20018;-73
2022/10/19 10:27:58;;;;;;;7.55;0.75;;;;;;;;;;5009621;28;20022;-73
2022/10/19 10:30:26;;;;;;;7.15;0.60;;;;;;;;;;4994660;28;20032;-73
2022/10/19 10:32:54;;;;;;;8.60;1.23;;;;;;;;;;4991454;28;20076;-73
2022/10/19 10:35:38;;;;;;;3.80;0.90;;;;;;;;;;5012419;28;20025;-73
2022/10/19 10:38:07;;;;;;;1.90;0.63;;;;;;;;;;5010798;28;20034;-73
2022/10/19 10:40:33;;;;;;;10.65;1.02;;;;;;;;;;5006291;28;20026;-73
2022/10/19 10:43:04;;;;;;;8.73;1.10;;;;;;;;;;5010260;28;20049;-73
2022/10/19 10:45:31;;;;;;;9.07;0.90;;;;;;;;;;4994129;28;20329;-74
2022/10/19 10:47:59;;;;;;;5.53;1.00;;;;;;;;;;5009413;28;20022;-73
2022/10/19 10:50:27;;;;;;;7.13;1.15;;;;;;;;;;5012478;28;20419;-77
2022/10/19 10:53:00;;;;;;;7.15;0.90;;;;;;;;;;5011992;28;20220;-77
2022/10/19 10:55:27;;;;;;;6.43;1.30;;;;;;;;;;5000982;28;20026;-79
2022/10/19 10:57:58;;;;;;;7.75;0.95;;;;;;;;;;4993428;28;20038;-79
2022/10/19 11:00:24;;;;;;;5.75;0.90;;;;;;;;;;4993230;28;20117;-79
2022/10/19 11:03:00;;;;;;;2.92;0.82;;;;;;;;;;4993082;28;20030;-79
2022/10/19 11:05:26;;;;;;;4.93;1.05;;;;;;;;;;5008178;28;20090;-78
2022/10/19 11:07:55;;;;;;;2.35;0.60;;;;;;;;;;4993189;28;20459;-78
2022/10/19 11:10:39;;;;;;;5.13;1.00;;;;;;;;;;4997549;28;20058;-78
2022/10/19 11:13:14;;;;;;;5.70;0.73;;;;;;;;;;5004222;28;20022;-78
2022/10/19 11:16:06;;;;;;;3.72;1.10;;;;;;;;;;4996959;28;20033;-78
2022/10/19 11:18:44;;;;;;;8.27;1.10;;;;;;;;;;4990828;28;20117;-79
2022/10/19 11:21:20;;;;;;;3.85;0.95;;;;;;;;;;4992020;28;20462;-77
2022/10/19 11:24:04;;;;;;;8.60;1.52;;;;;;;;;;4992580;28;20030;-77
2022/10/19 11:26:33;;;;;;;5.60;0.77;;;;;;;;;;5012100;28;20033;-79
2022/10/19 11:29:18;;;;;;;15.65;1.10;;;;;;;;;;5012856;28;20090;-79
2022/10/19 11:31:44;;;;;;;4.60;1.00;;;;;;;;;;5012807;28;20026;-79
2022/10/19 11:34:30;;;;;;;3.08;0.85;;;;;;;;;;5012709;28;20030;-79
2022/10/19 11:36:56;;;;;;;2.25;0.88;;;;;;;;;;5012391;28;20033;-79
2022/10/19 11:39:45;;;;;;;5.13;1.20;;;;;;;;;;5012503;28;20041;-79
2022/10/19 11:42:11;;;;;;;8.15;1.33;;;;;;;;;;5004888;28;20070;-79
2022/10/19 11:44:39;;;;;;;6.25;1.10;;;;;;;;;;5010691;28;20084;-79
2022/10/19 11:47:09;;;;;;;6.43;1.08;;;;;;;;;;5009042;28;20105;-79
2022/10/19 11:49:53;;;;;;;5.40;1.10;;;;;;;;;;5009668;28;20068;-79
2022/10/19 11:52:22;;;;;;;4.22;1.00;;;;;;;;;;5000438;28;20605;-79
2022/10/19 11:54:48;;;;;;;5.18;1.15;;;;;;;;;;5007121;28;20065;-79
2022/10/19 11:57:14;;;;;;;6.38;0.90;;;;;;;;;;5009571;28;20022;-79
2022/10/19 11:59:43;;;;;;;7.97;1.33;;;;;;;;;;5008820;28;20026;-79
2022/10/19 12:02:16;;;;;;;4.68;1.02;;;;;;;;;;5009245;28;20484;-79
2022/10/19 12:04:54;;;;;;;3.80;0.90;;;;;;;;;;5009645;28;20081;-79
2022/10/19 12:07:39;;;;;;;5.65;1.08;;;;;;;;;;5011800;28;20029;-79
2022/10/19 12:10:23;;;;;;;6.93;1.20;;;;;;;;;;5011903;28;20076;-79
2022/10/19 12:12:51;;;;;;;6.68;1.20;;;;;;;;;;5011732;28;20030;-79
2022/10/19 12:15:25;;;;;;;4.82;0.95;;;;;;;;;;5012188;28;20038;-80
2022/10/19 12:17:52;;;;;;;3.70;1.08;;;;;;;;;;4990569;28;20036;-79
2022/10/19 12:20:24;;;;;;;6.05;1.00;;;;;;;;;;5011831;28;20037;-80
2022/10/19 12:22:50;;;;;;;9.27;1.20;;;;;;;;;;5011747;28;20026;-79
2022/10/19 12:25:16;;;;;;;3.33;0.88;;;;;;;;;;5011831;28;20050;-79
2022/10/19 12:27:46;;;;;;;5.85;1.35;;;;;;;;;;5010404;28;20449;-79
2022/10/19 12:30:15;;;;;;;3.92;0.85;;;;;;;;;;5003663;28;20052;-79
2022/10/19 12:33:00;;;;;;;6.53;1.20;;;;;;;;;;5005151;28;20176;-79
2022/10/19 12:35:45;;;;;;;6.10;1.20;;;;;;;;;;5004244;28;20567;-79
2022/10/19 12:38:14;;;;;;;4.15;1.17;;;;;;;;;;5009525;28;20507;-79
2022/10/19 12:40:51;;;;;;;4.35;1.13;;;;;;;;;;5009179;28;20033;-80
2022/10/19 12:43:22;;;;;;;4.78;1.15;;;;;;;;;;5002264;28;20046;-79
2022/10/19 12:45:55;;;;;;;4.47;1.37;;;;;;;;;;4999813;28;20026;-79
2022/10/19 12:48:23;;;;;;;4.00;0.90;;;;;;;;;;5004507;28;20265;-80
2022/10/19 12:50:52;;;;;;;4.30;1.00;;;;;;;;;;5005196;28;20033;-79
2022/10/19 12:53:24;;;;;;;2.92;1.00;;;;;;;;;;5015485;28;20093;-78
2022/10/19 12:56:02;;;;;;;4.95;0.88;;;;;;;;;;5002986;28;20027;-79
2022/10/19 12:58:30;;;;;;;6.57;0.90;;;;;;;;;;5007273;28;20021;-79
2022/10/19 13:00:57;;;;;;;5.10;1.30;;;;;;;;;;5015336;28;20129;-79
2022/10/19 13:03:27;;;;;;;6.75;0.90;;;;;;;;;;5011506;28;20029;-79
2022/10/19 13:06:12;;;;;;;7.68;0.95;;;;;;;;;;5008732;28;20022;-79
2022/10/19 13:08:44;;;;;;;6.55;0.98;;;;;;;;;;5008988;28;20354;-79
2022/10/19 13:11:15;;;;;;;5.25;0.93;;;;;;;;;;5002674;28;20021;-79
2022/10/19 13:14:01;;;;;;;6.30;0.88;;;;;;;;;;4997552;28;20026;-79
2022/10/19 13:16:27;;;;;;;5.95;1.13;;;;;;;;;;4996178;28;20051;-79
2022/10/19 13:18:59;;;;;;;4.25;0.80;;;;;;;;;;5010893;28;20156;-79
2022/10/19 13:21:45;;;;;;;4.05;0.80;;;;;;;;;;4985663;28;20045;-79
2022/10/19 13:24:23;;;;;;;6.60;0.82;;;;;;;;;;5002606;28;20022;-79
2022/10/19 13:27:02;;;;;;;3.05;0.57;;;;;;;;;;5006794;28;20022;-79
2022/10/19 13:29:48;;;;;;;7.25;1.10;;;;;;;;;;4988216;28;20019;-79
2022/10/19 13:32:33;;;;;;;11.05;1.52;;;;;;;;;;5002873;28;20040;-78
2022/10/19 13:35:17;;;;;;;8.32;1.05;;;;;;;;;;5007537;28;20036;-79
2022/10/19 13:37:44;;;;;;;7.22;0.90;;;;;;;;;;5006044;28;20029;-79
2022/10/19 13:40:20;;;;;;;4.32;1.15;;;;;;;;;;4993606;28;20026;-79
2022/10/19 13:42:46;;;;;;;9.65;0.95;;;;;;;;;;4998259;28;20062;-79
2022/10/19 13:45:24;;;;;;;6.75;1.00;;;;;;;;;;5000109;28;20034;-79
2022/10/19 13:47:54;;;;;;;5.05;0.77;;;;;;;;;;5006461;28;20417;-79
2022/10/19 13:50:45;;;;;;;3.33;0.52;;;;;;;;;;5003706;28;20022;-79
2022/10/19 13:53:21;;;;;;;5.82;0.80;;;;;;;;;;5011117;28;20377;-79
2022/10/19 13:55:47;;;;;;;5.40;0.90;;;;;;;;;;4993590;28;20037;-80
2022/10/19 13:58:32;;;;;;;7.25;0.80;;;;;;;;;;4998655;28;20546;-77
2022/10/19 14:01:07;;;;;;;2.65;0.43;;;;;;;;;;5008737;28;20034;-76
2022/10/19 14:03:52;;;;;;;7.85;0.95;;;;;;;;;;4993021;28;20029;-76
2022/10/19 14:06:27;;;;;;;8.45;0.70;;;;;;;;;;5011558;28;20014;-76
2022/10/19 14:08:59;;;;;;;4.63;1.10;;;;;;;;;;5013950;28;20084;-76
2022/10/19 14:11:26;;;;;;;;;;;;;;;;;;4981471;28;20033;-76
2022/10/19 14:14:12;;;;;;;6.70;0.88;;;;;;;;;;4994204;28;19906;-76
2022/10/19 14:17:04;;;;;;;6.53;1.45;;;;;;;;;;5012643;28;20064;-76
2022/10/19 14:19:51;;;;;;;3.17;0.90;;;;;;;;;;5009895;28;20037;-74
2022/10/19 14:22:19;;;;;;;3.60;0.70;;;;;;;;;;4996124;28;20168;-76
2022/10/19 14:24:46;;;;;;;5.65;1.17;;;;;;;;;;5013502;28;20033;-77
2022/10/19 14:27:21;;;;;;;9.68;1.60;;;;;;;;;;5013448;28;20079;-76
2022/10/19 14:29:53;;;;;;;5.13;0.70;;;;;;;;;;5013360;28;20026;-76
2022/10/19 14:32:23;;;;;;;2.80;0.80;;;;;;;;;;5013275;28;20030;-77
2022/10/19 14:34:50;;;;;;;5.03;0.80;;;;;;;;;;5013592;28;20030;-76
2022/10/19 14:37:18;;;;;;;3.67;1.00;;;;;;;;;;5012978;28;20160;-77
2022/10/19 14:39:57;;;;;;;4.63;0.82;;;;;;;;;;4995158;28;20030;-77
2022/10/19 14:42:23;;;;;;;5.32;0.80;;;;;;;;;;4993530;28;20058;-77
2022/10/19 14:44:49;;;;;;;3.28;1.00;;;;;;;;;;4992287;28;20026;-77
2022/10/19 14:47:19;;;;;;;6.25;1.10;;;;;;;;;;4993299;28;20371;-76
2022/10/19 14:49:45;;;;;;;3.85;0.77;;;;;;;;;;4993483;28;20472;-75
2022/10/19 14:52:14;;;;;;;2.60;0.73;;;;;;;;;;5011632;28;20034;-76